Time;durP1;ratioP1;P1;durP2;ratioP2;P2;SDS_P1;SDS_P2;PMS_P1;PMS_P2;Temp;Humidity;BMP_temperature;BMP_pressure;BME280_temperature;BME280_humidity;BME280_pressure;Samples;Min_cycle;Max_cycle;Signal;HPM_P1;HPM_P2
2022/10/29 00:00:06;;;;;;;15.35;7.53;;;18.90;99.90;;;;;;5043311;28;20186;-78
2022/10/29 00:02:35;;;;;;;12.10;6.82;;;19.00;99.90;;;;;;5045974;28;20194;-78
2022/10/29 00:05:03;;;;;;;12.43;6.88;;;19.00;99.90;;;;;;5043472;28;20209;-78
2022/10/29 00:07:30;;;;;;;14.55;7.15;;;18.90;99.90;;;;;;5044616;28;20257;-77
2022/10/29 00:10:00;;;;;;;16.17;8.15;;;18.70;99.90;;;;;;5036234;28;20213;-77
2022/10/29 00:12:29;;;;;;;11.88;6.85;;;18.60;99.90;;;;;;5044275;28;20207;-78
2022/10/29 00:14:56;;;;;;;18.60;7.68;;;18.60;99.90;;;;;;5054038;28;20194;-78
2022/10/29 00:17:24;;;;;;;11.55;6.72;;;18.70;99.90;;;;;;5047557;28;20218;-78
2022/10/29 00:19:51;;;;;;;14.48;7.20;;;18.70;99.90;;;;;;5048020;28;20194;-78
2022/10/29 00:22:18;;;;;;;16.98;6.97;;;18.70;99.90;;;;;;5050214;28;20198;-78
2022/10/29 00:24:48;;;;;;;10.85;7.53;;;18.70;99.90;;;;;;5050032;28;20703;-77
2022/10/29 00:27:16;;;;;;;19.45;7.65;;;18.80;99.90;;;;;;5043202;28;20231;-77
2022/10/29 00:29:45;;;;;;;10.80;7.03;;;18.80;99.90;;;;;;5043926;28;20210;-78
2022/10/29 00:32:12;;;;;;;14.40;7.53;;;18.80;99.90;;;;;;5045754;28;20240;-77
2022/10/29 00:34:39;;;;;;;13.18;7.15;;;18.80;99.90;;;;;;5041725;28;20664;-78
2022/10/29 00:37:07;;;;;;;14.20;7.05;;;18.70;99.90;;;;;;5049566;28;20221;-78
2022/10/29 00:39:34;;;;;;;13.32;7.30;;;18.70;99.90;;;;;;5051778;28;20209;-78
2022/10/29 00:42:03;;;;;;;16.05;7.00;;;18.60;99.90;;;;;;5049644;28;20222;-78
2022/10/29 00:44:34;;;;;;;15.88;7.25;;;18.70;99.90;;;;;;5050531;28;20206;-78
2022/10/29 00:47:13;;;;;;;13.25;7.78;;;18.70;99.90;;;;;;5049721;28;20218;-78
2022/10/29 00:49:42;;;;;;;9.90;6.78;;;18.70;99.90;;;;;;5046012;28;20198;-78
2022/10/29 00:52:10;;;;;;;13.68;7.55;;;18.60;99.90;;;;;;5051808;28;20215;-78
2022/10/29 00:54:43;;;;;;;16.42;9.30;;;18.70;99.90;;;;;;5055893;28;20198;-78
2022/10/29 00:57:13;;;;;;;16.40;7.80;;;18.70;99.90;;;;;;5047819;28;20222;-78
2022/10/29 00:59:42;;;;;;;13.32;7.72;;;18.60;99.90;;;;;;5047226;28;20202;-78
2022/10/29 01:02:11;;;;;;;16.13;7.13;;;18.60;99.90;;;;;;5051912;28;20187;-78
2022/10/29 01:04:39;;;;;;;15.88;7.55;;;18.60;99.90;;;;;;5044740;28;20203;-78
2022/10/29 01:07:07;;;;;;;11.30;6.38;;;18.50;99.90;;;;;;5050867;28;20218;-78
2022/10/29 01:09:35;;;;;;;12.80;7.32;;;18.40;99.90;;;;;;5043879;28;20194;-78
2022/10/29 01:12:29;;;;;;;12.32;6.45;;;18.30;99.90;;;;;;5047420;28;20199;-78
2022/10/29 01:15:10;;;;;;;11.82;6.28;;;18.30;99.90;;;;;;5053024;28;20212;-78
2022/10/29 01:17:52;;;;;;;13.88;7.10;;;18.30;99.90;;;;;;5045996;28;20233;-77
2022/10/29 01:20:36;;;;;;;12.93;7.20;;;18.30;99.90;;;;;;5045326;28;20201;-78
2022/10/29 01:23:19;;;;;;;13.52;7.53;;;18.20;99.90;;;;;;5048845;28;20557;-78
2022/10/29 01:26:07;;;;;;;10.00;6.20;;;18.10;99.90;;;;;;5053499;28;20205;-77
2022/10/29 01:28:50;;;;;;;17.52;7.03;;;18.10;99.90;;;;;;5052192;28;20209;-77
2022/10/29 01:31:28;;;;;;;12.18;6.65;;;18.00;99.90;;;;;;5048733;28;20702;-78
2022/10/29 01:34:03;;;;;;;12.75;6.95;;;18.10;99.90;;;;;;5052000;28;20209;-78
2022/10/29 01:36:38;;;;;;;12.68;6.80;;;18.00;99.90;;;;;;5053747;28;20222;-77
2022/10/29 01:39:12;;;;;;;13.27;7.20;;;17.90;99.90;;;;;;5048150;28;20209;-78
2022/10/29 01:41:49;;;;;;;14.20;7.03;;;17.90;99.90;;;;;;5051581;28;20256;-77
2022/10/29 01:44:29;;;;;;;14.23;7.20;;;17.80;99.90;;;;;;5043965;28;20198;-78
2022/10/29 01:47:00;;;;;;;20.20;7.03;;;17.60;99.90;;;;;;5049065;28;20237;-78
2022/10/29 01:49:34;;;;;;;14.88;8.23;;;17.70;99.90;;;;;;5052680;28;20203;-77
2022/10/29 01:52:04;;;;;;;14.38;7.28;;;17.70;99.90;;;;;;5045207;28;20222;-77
2022/10/29 01:54:31;;;;;;;13.88;6.82;;;17.80;99.90;;;;;;5047601;28;20209;-78
2022/10/29 01:57:02;;;;;;;12.30;7.00;;;17.80;99.90;;;;;;5050960;28;20209;-78
2022/10/29 01:59:33;;;;;;;13.00;7.75;;;17.60;99.90;;;;;;5046690;28;20198;-78
2022/10/29 02:02:11;;;;;;;14.13;7.90;;;17.60;99.90;;;;;;5041770;28;20206;-78
2022/10/29 02:05:01;;;;;;;15.75;7.68;;;17.40;99.90;;;;;;5046729;28;20199;-77
2022/10/29 02:07:41;;;;;;;12.70;7.15;;;17.40;99.90;;;;;;5047054;28;20222;-78
2022/10/29 02:10:18;;;;;;;12.55;7.30;;;17.30;99.90;;;;;;5046153;28;20202;-77
2022/10/29 02:12:49;;;;;;;16.45;7.15;;;17.40;99.90;;;;;;5054785;28;20222;-78
2022/10/29 02:15:19;;;;;;;11.75;6.47;;;17.40;99.90;;;;;;5053664;28;20202;-78
2022/10/29 02:18:01;;;;;;;14.60;6.68;;;17.40;99.90;;;;;;5049072;28;20229;-78
2022/10/29 02:20:28;;;;;;;14.48;7.13;;;17.30;99.90;;;;;;5044213;28;20209;-78
2022/10/29 02:22:56;;;;;;;11.93;6.95;;;17.30;99.90;;;;;;5051642;28;20220;-77
2022/10/29 02:25:26;;;;;;;13.25;7.60;;;17.10;99.90;;;;;;5049040;28;20208;-77
2022/10/29 02:27:54;;;;;;;14.98;7.90;;;17.00;99.90;;;;;;5054367;28;20234;-78
2022/10/29 02:30:21;;;;;;;14.52;7.70;;;17.10;99.90;;;;;;5048397;28;20206;-78
2022/10/29 02:32:48;;;;;;;11.73;7.28;;;17.20;99.90;;;;;;5061769;28;20233;-78
2022/10/29 02:35:17;;;;;;;12.52;7.70;;;17.30;99.90;;;;;;5042700;28;20213;-78
2022/10/29 02:37:45;;;;;;;16.75;7.13;;;17.30;99.90;;;;;;5047527;28;20222;-78
2022/10/29 02:40:13;;;;;;;13.00;6.30;;;17.30;99.90;;;;;;5047195;28;20198;-77
2022/10/29 02:42:40;;;;;;;10.73;6.65;;;17.10;99.90;;;;;;5050542;28;20195;-78
2022/10/29 02:45:08;;;;;;;11.48;6.60;;;17.00;99.90;;;;;;5043684;28;20218;-77
2022/10/29 02:47:36;;;;;;;12.65;6.97;;;17.00;99.90;;;;;;5046118;28;20222;-78
2022/10/29 02:50:06;;;;;;;12.95;7.93;;;17.00;99.90;;;;;;5061382;28;20205;-77
2022/10/29 02:52:34;;;;;;;10.88;7.72;;;17.00;99.90;;;;;;5052387;28;20218;-77
2022/10/29 02:55:02;;;;;;;10.85;7.07;;;16.90;99.90;;;;;;5047712;28;20198;-77
2022/10/29 02:57:31;;;;;;;11.70;7.40;;;16.80;99.90;;;;;;5049887;28;20222;-78
2022/10/29 02:59:58;;;;;;;14.23;7.68;;;16.80;99.90;;;;;;5046211;28;20217;-78
2022/10/29 03:02:26;;;;;;;11.75;7.35;;;16.80;99.90;;;;;;5046676;28;20194;-77
2022/10/29 03:04:53;;;;;;;14.00;7.90;;;16.80;99.90;;;;;;5050440;28;20191;-77
2022/10/29 03:07:21;;;;;;;12.10;6.75;;;16.80;99.90;;;;;;5048465;28;20234;-77
2022/10/29 03:10:13;;;;;;;14.40;6.35;;;16.80;99.90;;;;;;5049602;28;20229;-78
2022/10/29 03:12:41;;;;;;;14.00;7.32;;;16.80;99.90;;;;;;5045843;28;20214;-78
2022/10/29 03:15:10;;;;;;;10.98;7.50;;;16.70;99.90;;;;;;5051067;28;20201;-78
2022/10/29 03:17:37;;;;;;;12.23;7.30;;;16.80;99.90;;;;;;5048881;28;20222;-78
2022/10/29 03:20:06;;;;;;;17.10;8.05;;;16.90;99.90;;;;;;5045241;28;20190;-78
2022/10/29 03:22:33;;;;;;;12.63;6.78;;;16.70;99.90;;;;;;5046458;28;20203;-77
2022/10/29 03:25:00;;;;;;;13.90;7.65;;;16.70;99.90;;;;;;5048749;28;20187;-78
2022/10/29 03:27:28;;;;;;;12.88;6.72;;;16.80;99.90;;;;;;5042888;28;20226;-77
2022/10/29 03:29:57;;;;;;;12.77;6.95;;;16.80;99.90;;;;;;5042583;28;20199;-77
2022/10/29 03:32:24;;;;;;;13.82;7.30;;;16.70;99.90;;;;;;5043758;28;20206;-77
2022/10/29 03:34:51;;;;;;;13.90;7.72;;;16.60;99.90;;;;;;5040826;28;20202;-77
2022/10/29 03:37:19;;;;;;;12.93;7.25;;;16.60;99.90;;;;;;5050854;28;20679;-77
2022/10/29 03:39:46;;;;;;;10.18;6.93;;;16.60;99.90;;;;;;5038950;28;20210;-78
2022/10/29 03:42:13;;;;;;;15.27;7.97;;;16.60;99.90;;;;;;5046857;28;20195;-77
2022/10/29 03:44:41;;;;;;;12.10;7.40;;;16.60;99.90;;;;;;5046348;28;20682;-78
2022/10/29 03:47:09;;;;;;;10.60;7.30;;;16.60;99.90;;;;;;5046651;28;20222;-77
2022/10/29 03:49:37;;;;;;;14.60;7.80;;;16.70;99.90;;;;;;5043191;28;20205;-77
2022/10/29 03:52:04;;;;;;;10.77;6.82;;;16.70;99.90;;;;;;5043672;28;20214;-77
2022/10/29 03:54:32;;;;;;;12.27;7.85;;;16.70;99.90;;;;;;5046320;28;20210;-78
2022/10/29 03:57:02;;;;;;;11.23;7.80;;;16.60;99.90;;;;;;5051114;28;20217;-78
2022/10/29 03:59:29;;;;;;;15.15;7.40;;;16.60;99.90;;;;;;5042175;28;20202;-77
2022/10/29 04:01:57;;;;;;;8.38;6.63;;;16.40;99.90;;;;;;5046410;28;20199;-77
2022/10/29 04:04:25;;;;;;;13.77;8.05;;;16.50;99.90;;;;;;5041456;28;20206;-78
2022/10/29 04:06:53;;;;;;;14.45;7.35;;;16.60;99.90;;;;;;5049079;28;20221;-77
2022/10/29 04:09:20;;;;;;;18.27;8.48;;;16.80;99.90;;;;;;5045488;28;20207;-77
2022/10/29 04:11:48;;;;;;;11.50;7.65;;;16.90;99.90;;;;;;5043491;28;20201;-77
2022/10/29 04:14:15;;;;;;;16.25;8.23;;;16.90;99.90;;;;;;5046763;28;20197;-78
2022/10/29 04:16:45;;;;;;;12.95;7.97;;;16.90;99.90;;;;;;5052670;28;20218;-78
2022/10/29 04:19:19;;;;;;;14.63;7.63;;;16.80;99.90;;;;;;5052266;28;20198;-78
2022/10/29 04:21:47;;;;;;;13.75;6.90;;;16.80;99.90;;;;;;5051607;28;20213;-78
2022/10/29 04:24:15;;;;;;;15.23;6.90;;;16.70;99.90;;;;;;5051453;28;20194;-77
2022/10/29 04:26:43;;;;;;;14.20;7.13;;;16.90;99.90;;;;;;5048968;28;20233;-78
2022/10/29 04:29:11;;;;;;;12.13;7.32;;;16.90;99.90;;;;;;5048992;28;20202;-78
2022/10/29 04:31:38;;;;;;;12.55;7.43;;;17.00;99.90;;;;;;5049750;28;20225;-78
2022/10/29 04:34:06;;;;;;;12.88;7.82;;;17.00;99.90;;;;;;5050351;28;20194;-78
2022/10/29 04:36:33;;;;;;;12.48;7.18;;;17.10;99.90;;;;;;5048713;28;20226;-78
2022/10/29 04:39:02;;;;;;;11.00;6.95;;;17.10;99.90;;;;;;5052082;28;20190;-78
2022/10/29 04:41:30;;;;;;;11.88;6.45;;;17.10;99.90;;;;;;5050602;28;20714;-78
2022/10/29 04:43:57;;;;;;;14.00;7.88;;;17.00;99.90;;;;;;5048401;28;20186;-77
2022/10/29 04:46:25;;;;;;;15.35;8.27;;;17.00;99.90;;;;;;5048921;28;20221;-77
2022/10/29 04:48:52;;;;;;;16.23;7.32;;;17.10;99.90;;;;;;5051013;28;20209;-77
2022/10/29 04:51:20;;;;;;;13.27;7.75;;;17.10;99.90;;;;;;5052522;28;20198;-78
2022/10/29 04:53:48;;;;;;;14.13;7.53;;;17.00;99.90;;;;;;5050137;28;20563;-78
2022/10/29 04:56:17;;;;;;;12.40;7.22;;;17.00;99.90;;;;;;5043350;28;20221;-78
2022/10/29 04:58:45;;;;;;;12.82;7.30;;;17.10;99.90;;;;;;5047378;28;20213;-78
2022/10/29 05:01:12;;;;;;;10.25;7.47;;;17.10;99.90;;;;;;5044382;28;20206;-77
2022/10/29 05:03:40;;;;;;;12.05;7.57;;;17.00;99.90;;;;;;5047557;28;20198;-78
2022/10/29 05:06:07;;;;;;;15.05;8.38;;;17.10;99.90;;;;;;5049903;28;20218;-77
2022/10/29 05:08:35;;;;;;;15.23;7.28;;;17.10;99.90;;;;;;5044000;28;20680;-77
2022/10/29 05:11:03;;;;;;;14.23;7.70;;;17.10;99.90;;;;;;5050683;28;20257;-77
2022/10/29 05:13:32;;;;;;;14.52;7.88;;;17.20;99.90;;;;;;5052292;28;20571;-77
2022/10/29 05:16:00;;;;;;;12.68;7.00;;;17.30;99.90;;;;;;5044019;28;20203;-77
2022/10/29 05:18:27;;;;;;;11.75;7.85;;;17.10;99.90;;;;;;5048357;28;20285;-77
2022/10/29 05:20:55;;;;;;;11.70;7.55;;;17.00;99.90;;;;;;5050299;28;20202;-78
2022/10/29 05:23:23;;;;;;;10.90;6.82;;;17.00;99.90;;;;;;5042033;28;20192;-78
2022/10/29 05:25:51;;;;;;;13.27;7.45;;;17.10;99.90;;;;;;5050460;28;20221;-78
2022/10/29 05:28:20;;;;;;;16.13;7.70;;;17.20;99.90;;;;;;5048541;28;20664;-78
2022/10/29 05:30:50;;;;;;;12.35;7.38;;;17.30;99.90;;;;;;5046877;28;20281;-78
2022/10/29 05:33:20;;;;;;;11.25;6.75;;;17.30;99.90;;;;;;5044427;28;20206;-78
2022/10/29 05:35:50;;;;;;;17.35;7.80;;;17.40;99.90;;;;;;5043218;28;20203;-78
2022/10/29 05:38:34;;;;;;;16.23;8.60;;;17.30;99.90;;;;;;5063714;28;20217;-78
2022/10/29 05:41:05;;;;;;;12.02;7.35;;;17.30;99.90;;;;;;5052822;28;20210;-77
2022/10/29 05:43:39;;;;;;;12.45;7.82;;;17.00;99.90;;;;;;5053462;28;20202;-77
2022/10/29 05:46:08;;;;;;;13.30;7.45;;;17.10;99.90;;;;;;5041000;28;20213;-77
2022/10/29 05:48:37;;;;;;;14.63;8.75;;;17.10;99.90;;;;;;5047664;28;20232;-77
2022/10/29 05:51:33;;;;;;;13.68;7.18;;;17.00;99.90;;;;;;5044780;28;20209;-77
2022/10/29 05:54:02;;;;;;;14.43;7.55;;;17.10;99.90;;;;;;5041175;28;20206;-77
2022/10/29 05:56:29;;;;;;;14.40;7.35;;;17.20;99.90;;;;;;5044971;28;20214;-77
2022/10/29 05:58:56;;;;;;;16.10;7.90;;;17.20;99.90;;;;;;5050060;28;20202;-77
2022/10/29 06:01:25;;;;;;;13.40;7.38;;;17.20;99.90;;;;;;5052830;28;20202;-82
2022/10/29 06:03:52;;;;;;;16.48;8.38;;;17.30;99.90;;;;;;5052687;28;20221;-83
2022/10/29 06:06:20;;;;;;;12.13;7.68;;;17.40;99.90;;;;;;5051644;28;20226;-81
2022/10/29 06:08:47;;;;;;;13.40;7.30;;;17.50;99.90;;;;;;5052535;28;20202;-81
2022/10/29 06:11:15;;;;;;;13.07;7.90;;;17.50;99.90;;;;;;5052843;28;20210;-81
2022/10/29 06:13:42;;;;;;;14.50;7.70;;;17.50;99.90;;;;;;5045831;28;20219;-81
2022/10/29 06:16:11;;;;;;;12.68;7.47;;;17.50;99.90;;;;;;5049527;28;20719;-81
2022/10/29 06:18:40;;;;;;;12.18;7.18;;;17.60;99.90;;;;;;5049075;28;20199;-81
2022/10/29 06:21:07;;;;;;;10.48;7.20;;;17.60;99.90;;;;;;5049833;28;20198;-81
2022/10/29 06:23:35;;;;;;;16.75;7.13;;;17.50;99.90;;;;;;5052868;28;20198;-81
2022/10/29 06:26:02;;;;;;;13.27;8.05;;;17.40;99.90;;;;;;5049351;28;20202;-80
2022/10/29 06:28:30;;;;;;;13.38;7.03;;;17.50;99.90;;;;;;5046394;28;20214;-80
2022/10/29 06:30:58;;;;;;;13.13;8.15;;;17.50;99.90;;;;;;5048213;28;20213;-79
2022/10/29 06:33:25;;;;;;;14.43;7.10;;;17.50;99.90;;;;;;5052877;28;20916;-80
2022/10/29 06:35:58;;;;;;;16.08;7.13;;;17.60;99.90;;;;;;5050075;28;20213;-81
2022/10/29 06:38:25;;;;;;;10.18;5.85;;;17.60;99.90;;;;;;5053423;28;20206;-81
2022/10/29 06:40:53;;;;;;;10.00;6.97;;;17.60;99.90;;;;;;5053097;28;20202;-81
2022/10/29 06:43:24;;;;;;;14.00;7.60;;;17.50;99.90;;;;;;5028876;28;20248;-82
2022/10/29 06:45:52;;;;;;;12.07;6.47;;;17.50;99.90;;;;;;5041060;28;20218;-81
2022/10/29 06:48:19;;;;;;;13.10;6.63;;;17.60;99.90;;;;;;5050766;28;20234;-81
2022/10/29 06:50:47;;;;;;;11.13;6.50;;;17.60;99.90;;;;;;5043955;28;20209;-81
2022/10/29 06:53:16;;;;;;;11.48;6.47;;;17.60;99.90;;;;;;5055101;28;20199;-81
2022/10/29 06:55:43;;;;;;;12.65;6.18;;;17.70;99.90;;;;;;5051346;28;20722;-81
2022/10/29 06:58:15;;;;;;;10.93;6.55;;;17.70;99.90;;;;;;5071534;28;20218;-81
2022/10/29 07:00:43;;;;;;;11.10;6.22;;;17.80;99.90;;;;;;5050575;28;20210;-81
2022/10/29 07:03:12;;;;;;;11.20;6.75;;;17.80;99.90;;;;;;5050106;28;20203;-81
2022/10/29 07:05:40;;;;;;;12.98;8.38;;;17.80;99.90;;;;;;5051118;28;20194;-81
2022/10/29 07:08:07;;;;;;;15.60;7.85;;;17.80;99.90;;;;;;5051978;28;20225;-81
2022/10/29 07:10:36;;;;;;;10.15;6.55;;;17.80;99.90;;;;;;5055611;28;20576;-81
2022/10/29 07:13:04;;;;;;;14.85;8.02;;;17.90;99.90;;;;;;5051200;28;20212;-81
2022/10/29 07:15:32;;;;;;;12.05;6.68;;;17.90;99.90;;;;;;5050125;28;20206;-81
2022/10/29 07:18:01;;;;;;;12.98;7.38;;;17.80;99.90;;;;;;5053106;28;20222;-81
2022/10/29 07:20:30;;;;;;;13.88;6.70;;;17.80;99.90;;;;;;5052609;28;20209;-81
2022/10/29 07:22:58;;;;;;;12.20;7.13;;;17.90;99.90;;;;;;5053481;28;20205;-81
2022/10/29 07:25:25;;;;;;;11.82;7.05;;;18.00;99.90;;;;;;5052192;28;20194;-81
2022/10/29 07:27:57;;;;;;;12.27;7.55;;;18.10;99.90;;;;;;5055107;28;20222;-81
2022/10/29 07:30:24;;;;;;;15.82;6.50;;;18.10;99.90;;;;;;5053051;28;20209;-81
2022/10/29 07:32:51;;;;;;;18.08;8.00;;;18.10;99.90;;;;;;5053326;28;20205;-81
2022/10/29 07:35:19;;;;;;;9.38;6.53;;;18.00;99.90;;;;;;5055615;28;20210;-81
2022/10/29 07:37:46;;;;;;;14.25;7.57;;;17.90;99.90;;;;;;5051980;28;20237;-81
2022/10/29 07:40:14;;;;;;;10.48;6.65;;;17.90;99.90;;;;;;5051180;28;20205;-81
2022/10/29 07:42:41;;;;;;;11.20;5.88;;;17.90;99.90;;;;;;5047711;28;20202;-81
2022/10/29 07:45:10;;;;;;;11.40;6.38;;;18.10;99.90;;;;;;5043600;28;20194;-80
2022/10/29 07:47:41;;;;;;;17.98;7.10;;;18.20;99.90;;;;;;5042881;28;20233;-80
2022/10/29 07:50:09;;;;;;;13.65;6.32;;;18.10;99.90;;;;;;5044022;28;21210;-80
2022/10/29 07:52:37;;;;;;;13.95;6.70;;;18.10;99.90;;;;;;5049111;28;20206;-81
2022/10/29 07:55:05;;;;;;;14.73;6.53;;;18.10;99.90;;;;;;5050588;28;20214;-80
2022/10/29 07:57:32;;;;;;;16.02;7.43;;;18.00;99.90;;;;;;5052483;28;20229;-80
2022/10/29 08:00:02;;;;;;;15.45;6.00;;;18.10;99.90;;;;;;5053710;28;20195;-80
2022/10/29 08:02:41;;;;;;;9.68;5.72;;;18.20;99.90;;;;;;5061253;28;20691;-80
2022/10/29 08:05:09;;;;;;;13.05;5.38;;;18.30;99.90;;;;;;5048093;28;20201;-80
2022/10/29 08:07:36;;;;;;;13.23;6.50;;;18.30;99.90;;;;;;5048880;28;20218;-80
2022/10/29 08:10:04;;;;;;;12.15;6.18;;;18.40;99.90;;;;;;5051211;28;20563;-80
2022/10/29 08:12:35;;;;;;;11.98;5.95;;;18.50;99.90;;;;;;5050536;28;20209;-80
2022/10/29 08:15:04;;;;;;;12.05;5.57;;;18.40;99.90;;;;;;5053280;28;20210;-80
2022/10/29 08:17:32;;;;;;;13.10;6.35;;;18.50;99.90;;;;;;5052083;28;20241;-81
2022/10/29 08:20:01;;;;;;;11.02;5.93;;;18.50;99.90;;;;;;5054446;28;20195;-80
2022/10/29 08:22:30;;;;;;;11.57;5.80;;;18.50;99.90;;;;;;5050480;28;20199;-80
2022/10/29 08:24:58;;;;;;;9.90;5.78;;;18.50;99.90;;;;;;5049125;28;20676;-80
2022/10/29 08:27:25;;;;;;;11.70;5.85;;;18.50;99.90;;;;;;5053073;28;20226;-80
2022/10/29 08:29:53;;;;;;;8.75;5.80;;;18.60;99.90;;;;;;5046418;28;20209;-80
2022/10/29 08:32:20;;;;;;;9.88;5.80;;;18.70;99.90;;;;;;5053941;28;20213;-80
2022/10/29 08:34:47;;;;;;;13.50;5.82;;;18.70;99.90;;;;;;5054071;28;20699;-80
2022/10/29 08:37:16;;;;;;;14.73;6.07;;;18.70;99.90;;;;;;5053761;28;20404;-80
2022/10/29 08:39:44;;;;;;;11.63;5.90;;;18.80;99.90;;;;;;5053797;28;20198;-80
2022/10/29 08:42:23;;;;;;;13.20;5.90;;;18.90;99.90;;;;;;5054432;28;20195;-80
2022/10/29 08:45:08;;;;;;;14.07;5.47;;;18.90;99.90;;;;;;5054316;28;20194;-80
2022/10/29 08:47:47;;;;;;;10.10;5.10;;;18.90;99.90;;;;;;5054754;28;20930;-80
2022/10/29 08:50:22;;;;;;;11.20;5.80;;;18.90;99.90;;;;;;5037586;28;20213;-80
2022/10/29 08:52:52;;;;;;;11.35;5.55;;;19.00;99.90;;;;;;5044984;28;20210;-80
2022/10/29 08:55:25;;;;;;;11.55;5.55;;;19.10;99.90;;;;;;5053868;28;20214;-80
2022/10/29 08:57:55;;;;;;;9.30;5.55;;;19.20;99.90;;;;;;5053657;28;20225;-80
2022/10/29 09:00:25;;;;;;;9.93;5.43;;;19.20;99.90;;;;;;5055328;28;20575;-80
2022/10/29 09:02:58;;;;;;;10.43;4.88;;;19.30;99.90;;;;;;5048396;28;20207;-80
2022/10/29 09:05:30;;;;;;;15.00;5.40;;;19.40;99.90;;;;;;5056963;28;20206;-80
2022/10/29 09:08:10;;;;;;;9.70;5.50;;;19.40;99.90;;;;;;5058113;28;20222;-80
2022/10/29 09:10:43;;;;;;;9.50;5.03;;;19.40;99.90;;;;;;5057254;28;20652;-80
2022/10/29 09:13:26;;;;;;;13.77;5.25;;;19.40;99.90;;;;;;5056827;28;20191;-80
2022/10/29 09:16:04;;;;;;;11.27;5.30;;;19.50;99.90;;;;;;5058134;28;20213;-80
2022/10/29 09:18:49;;;;;;;11.48;5.43;;;19.50;99.90;;;;;;5049328;28;20203;-79
2022/10/29 09:21:29;;;;;;;9.73;4.57;;;19.60;99.90;;;;;;5042134;28;20651;-81
2022/10/29 09:24:10;;;;;;;9.95;5.38;;;19.60;99.90;;;;;;5053046;28;20202;-81
2022/10/29 09:26:47;;;;;;;11.23;5.07;;;19.70;99.90;;;;;;5051670;28;20226;-81
2022/10/29 09:31:47;;;;;;;9.23;4.80;;;19.70;99.90;;;;;;4990363;28;20220;-79
2022/10/29 09:34:18;;;;;;;10.45;5.10;;;19.90;99.90;;;;;;4993149;28;20211;-79
2022/10/29 09:36:47;;;;;;;9.43;4.43;;;19.90;99.90;;;;;;4996062;28;20552;-78
2022/10/29 09:39:23;;;;;;;13.75;5.53;;;20.00;99.90;;;;;;4993897;28;20207;-77
2022/10/29 09:41:53;;;;;;;12.30;6.30;;;20.10;99.90;;;;;;5010454;28;20199;-78
2022/10/29 09:44:22;;;;;;;13.60;5.28;;;20.20;99.90;;;;;;5014533;28;20199;-79
2022/10/29 09:47:01;;;;;;;11.05;5.25;;;20.30;99.90;;;;;;5013686;28;20199;-78
2022/10/29 09:49:45;;;;;;;10.20;5.15;;;20.40;99.90;;;;;;5011850;28;20200;-80
2022/10/29 09:52:17;;;;;;;10.80;4.70;;;20.40;99.90;;;;;;5003776;28;20557;-81
2022/10/29 09:54:49;;;;;;;10.00;4.95;;;20.40;99.90;;;;;;5024771;28;20573;-80
2022/10/29 09:57:19;;;;;;;13.52;6.55;;;20.40;99.90;;;;;;5011412;28;20208;-80
2022/10/29 09:59:51;;;;;;;13.68;5.25;;;20.40;99.90;;;;;;5010852;28;20234;-81
2022/10/29 10:02:27;;;;;;;8.73;5.40;;;20.50;99.90;;;;;;5009878;28;20199;-81
2022/10/29 10:04:58;;;;;;;13.32;5.53;;;20.50;99.90;;;;;;5010197;28;20684;-79
2022/10/29 10:07:26;;;;;;;11.60;5.75;;;20.60;99.90;;;;;;5012020;28;20199;-79
2022/10/29 10:09:57;;;;;;;9.52;5.20;;;20.70;99.90;;;;;;5009383;28;20724;-82
2022/10/29 10:12:26;;;;;;;10.60;4.90;;;20.80;99.90;;;;;;5003412;28;20211;-82
2022/10/29 10:15:27;;;;;;;8.93;4.40;;;20.90;99.90;;;;;;5005381;28;20210;-79
2022/10/29 10:17:57;;;;;;;11.30;4.75;;;20.90;99.90;;;;;;5011078;28;20199;-79
2022/10/29 10:20:44;;;;;;;8.55;4.68;;;21.00;99.90;;;;;;5008124;28;20220;-79
2022/10/29 10:23:25;;;;;;;8.60;5.00;;;21.00;99.90;;;;;;5004694;28;20279;-79
2022/10/29 10:25:55;;;;;;;12.77;6.35;;;21.00;99.90;;;;;;5013932;28;20203;-80
2022/10/29 10:28:25;;;;;;;10.82;5.40;;;21.00;99.90;;;;;;5011861;28;20188;-79
2022/10/29 10:31:12;;;;;;;10.65;5.55;;;21.00;99.90;;;;;;5005812;28;20239;-79
2022/10/29 10:33:51;;;;;;;13.02;5.72;;;21.00;99.90;;;;;;5009910;28;20204;-79
2022/10/29 10:36:22;;;;;;;7.43;4.50;;;21.00;99.90;;;;;;5010113;28;20215;-79
2022/10/29 10:39:29;;;;;;;13.48;6.38;;;21.20;99.90;;;;;;5008868;28;20215;-81
2022/10/29 10:42:01;;;;;;;11.82;5.80;;;21.30;99.90;;;;;;5010743;28;20204;-79
2022/10/29 10:44:29;;;;;;;10.23;4.90;;;21.50;99.90;;;;;;5011636;28;20227;-79
2022/10/29 10:46:59;;;;;;;8.00;4.97;;;21.60;99.90;;;;;;5009114;28;20195;-80
2022/10/29 10:49:33;;;;;;;10.15;4.80;;;21.80;99.90;;;;;;4998779;28;20193;-79
2022/10/29 10:52:04;;;;;;;11.02;4.63;;;22.00;99.90;;;;;;5000596;28;20204;-80
2022/10/29 10:54:36;;;;;;;10.93;4.63;;;22.30;99.90;;;;;;5000333;28;20200;-79
2022/10/29 10:57:20;;;;;;;10.95;4.57;;;22.70;99.90;;;;;;5024279;28;20215;-80
2022/10/29 10:59:56;;;;;;;11.18;5.22;;;22.60;99.90;;;;;;5013514;28;20215;-80
2022/10/29 11:02:31;;;;;;;9.07;3.67;;;22.30;99.90;;;;;;5011788;28;20572;-80
2022/10/29 11:05:02;;;;;;;10.90;4.90;;;22.60;99.90;;;;;;5030307;28;20213;-81
2022/10/29 11:07:34;;;;;;;10.80;4.22;;;22.80;99.90;;;;;;5002252;28;20200;-79
2022/10/29 11:10:05;;;;;;;10.18;4.53;;;23.10;99.90;;;;;;5010969;28;20220;-80
2022/10/29 11:12:40;;;;;;;10.70;4.65;;;23.00;99.90;;;;;;5015384;28;20210;-81
2022/10/29 11:15:15;;;;;;;9.50;4.55;;;23.40;99.90;;;;;;5009377;28;20657;-80
2022/10/29 11:17:49;;;;;;;7.78;4.10;;;23.40;99.00;;;;;;5009076;28;20214;-82
2022/10/29 11:20:22;;;;;;;9.55;4.45;;;23.10;99.30;;;;;;5008960;28;20233;-80
2022/10/29 11:22:58;;;;;;;10.38;4.45;;;23.10;99.10;;;;;;5012478;28;20211;-80
2022/10/29 11:25:31;;;;;;;10.85;4.88;;;23.20;99.30;;;;;;5007705;28;20199;-80
2022/10/29 11:28:07;;;;;;;8.13;4.53;;;23.60;98.40;;;;;;5011297;28;20203;-80
2022/10/29 11:30:41;;;;;;;8.40;4.30;;;23.60;98.30;;;;;;5023917;28;20222;-81
2022/10/29 11:33:17;;;;;;;7.75;4.28;;;23.50;96.80;;;;;;5019412;28;20192;-80
2022/10/29 11:35:49;;;;;;;12.75;4.55;;;23.50;96.50;;;;;;5007485;28;20230;-80
2022/10/29 11:38:20;;;;;;;9.48;4.15;;;23.90;96.10;;;;;;5010464;28;20680;-81
2022/10/29 11:40:53;;;;;;;10.18;4.68;;;24.30;94.70;;;;;;5008460;28;20250;-80
2022/10/29 11:43:22;;;;;;;8.20;3.70;;;24.30;94.10;;;;;;5019542;28;20200;-79
2022/10/29 11:45:58;;;;;;;7.70;4.03;;;23.90;95.10;;;;;;5009510;28;20192;-80
2022/10/29 11:48:35;;;;;;;9.02;4.57;;;24.20;93.80;;;;;;5011960;28;20191;-81
2022/10/29 11:51:14;;;;;;;8.90;3.90;;;24.50;92.70;;;;;;5019014;28;20230;-79
2022/10/29 11:54:02;;;;;;;9.38;3.95;;;24.10;93.30;;;;;;5012784;28;20202;-80
2022/10/29 11:56:50;;;;;;;12.23;4.30;;;23.80;93.30;;;;;;5020358;28;20212;-80
2022/10/29 11:59:30;;;;;;;8.43;4.22;;;23.80;93.50;;;;;;5007934;28;20683;-81
2022/10/29 12:02:16;;;;;;;11.63;4.00;;;24.00;93.10;;;;;;5023017;28;20222;-79
2022/10/29 12:04:49;;;;;;;10.80;3.83;;;23.90;93.30;;;;;;5010505;28;20218;-80
2022/10/29 12:07:32;;;;;;;13.27;4.47;;;24.50;92.90;;;;;;5009043;28;20203;-83
2022/10/29 12:10:33;;;;;;;11.40;4.30;;;24.80;93.20;;;;;;5004611;28;20223;-79
2022/10/29 12:13:09;;;;;;;10.85;4.15;;;24.60;91.60;;;;;;5009038;28;20203;-80
2022/10/29 12:15:45;;;;;;;10.57;4.32;;;24.80;91.60;;;;;;5009171;28;20206;-80
2022/10/29 12:18:32;;;;;;;10.45;3.85;;;24.30;91.90;;;;;;5011124;28;20230;-81
2022/10/29 12:21:09;;;;;;;9.68;4.28;;;24.30;91.20;;;;;;5005059;28;20701;-79
2022/10/29 12:23:50;;;;;;;8.50;3.47;;;24.70;90.80;;;;;;5011605;28;20195;-80
2022/10/29 12:26:25;;;;;;;10.88;4.00;;;24.50;90.70;;;;;;5022179;28;20195;-80
2022/10/29 12:28:58;;;;;;;12.13;4.68;;;24.70;90.40;;;;;;5011150;28;20218;-81
2022/10/29 12:31:34;;;;;;;8.32;3.92;;;25.00;90.00;;;;;;5003366;28;20231;-84
2022/10/29 12:34:06;;;;;;;12.93;4.65;;;24.40;90.70;;;;;;5008238;28;20203;-79
2022/10/29 12:36:42;;;;;;;8.80;3.70;;;24.30;90.40;;;;;;5015065;28;20219;-78
2022/10/29 12:39:19;;;;;;;10.85;4.47;;;24.20;90.70;;;;;;5014186;28;20282;-79
2022/10/29 12:41:50;;;;;;;9.88;4.55;;;24.20;90.90;;;;;;5011020;28;20199;-77
2022/10/29 12:44:25;;;;;;;9.52;4.00;;;24.20;90.20;;;;;;5013157;28;20203;-78
2022/10/29 12:47:01;;;;;;;9.95;4.20;;;24.20;90.80;;;;;;5010556;28;20200;-78
2022/10/29 12:49:42;;;;;;;11.82;4.32;;;24.00;91.30;;;;;;5011792;28;20199;-79
2022/10/29 12:52:34;;;;;;;12.50;4.18;;;24.10;90.80;;;;;;5008854;28;20204;-79
2022/10/29 12:55:04;;;;;;;7.93;4.00;;;24.10;90.90;;;;;;5013829;28;20204;-81
2022/10/29 12:57:34;;;;;;;10.10;4.95;;;24.00;91.60;;;;;;5024325;28;20689;-83
2022/10/29 13:00:41;;;;;;;9.85;4.25;;;23.90;91.90;;;;;;5012312;28;20235;-78
2022/10/29 13:03:10;;;;;;;12.43;4.53;;;23.80;92.00;;;;;;5011434;28;20568;-79